Bison, Oklahoma
Current Conditions -  °F | °C
As of 9:58 AM on Sunday 25 Jan 2015 (Local Time) from KEND Reporting Station
Clear Clear  
Wind Chill: 41°   Ceiling: Unl
Heat Index: 50°   Visibility: 10mi
Dew Point: 29°   Wind: 33mph
Humidity: 45%   Direction: 330°NNW
Pressure: 29.99"   Gusts: 45mph
Location:  36.2°N, 97.89°W
Report Text: KEND 251558Z AUTO 33029G39KT 10SM CLR 10/M02 A2999 RMK AO2 PK WND 32040/31 SLP159 T00991017 $
Loading
Personal Weather Stations






























Interactive Weather Map New forecast layout! Learn more

10-Day Weather Forecast

Advertisements
Track Severe Weather on mobile